Time;durP1;ratioP1;P1;durP2;ratioP2;P2;SDS_P1;SDS_P2;PMS_P1;PMS_P2;Temp;Humidity;BMP_temperature;BMP_pressure;BME280_temperature;BME280_humidity;BME280_pressure;Samples;Min_cycle;Max_cycle;Signal;HPM_P1;HPM_P2
2023/04/17 00:00:34;;;;;;;24.00;14.90;;;;;;;9.12;79.11;100011.86;107024;1258;61349;-39
2023/04/17 00:03:02;;;;;;;22.40;15.60;;;;;;;9.14;79.24;100004.75;107036;1259;75167;-39
2023/04/17 00:05:32;;;;;;;20.20;15.40;;;;;;;9.14;79.29;100003.77;106999;1259;67519;-39
2023/04/17 00:08:03;;;;;;;25.50;15.90;;;;;;;9.12;79.48;100003.36;106988;1259;73373;-39
2023/04/17 00:10:31;;;;;;;21.40;14.90;;;;;;;9.10;79.52;100002.98;107014;1259;63155;-39
2023/04/17 00:13:02;;;;;;;18.20;13.40;;;;;;;9.11;79.46;100004.04;107055;1259;61315;-37
2023/04/17 00:15:31;;;;;;;24.00;14.20;;;;;;;9.16;79.34;100010.23;107049;1259;72760;-37
2023/04/17 00:18:01;;;;;;;18.90;14.40;;;;;;;9.19;79.36;100009.93;106971;1259;69412;-37
2023/04/17 00:20:29;;;;;;;24.60;14.90;;;;;;;9.15;79.38;100010.73;107049;1259;74124;-38
2023/04/17 00:22:58;;;;;;;18.60;13.60;;;;;;;9.14;79.47;100010.70;107006;1259;60545;-38
2023/04/17 00:25:27;;;;;;;17.60;13.10;;;;;;;9.13;79.34;100008.57;107055;1259;61533;-38
2023/04/17 00:27:56;;;;;;;19.40;13.00;;;;;;;9.19;79.22;100010.77;107041;1263;75521;-38
2023/04/17 00:30:24;;;;;;;20.60;13.60;;;;;;;9.21;79.14;100009.16;107036;1259;69142;-38
2023/04/17 00:32:54;;;;;;;18.00;14.00;;;;;;;9.20;79.09;100007.71;107084;1259;73560;-38
2023/04/17 00:35:23;;;;;;;19.20;13.80;;;;;;;9.15;79.09;100008.40;107053;1259;61625;-38
2023/04/17 00:37:51;;;;;;;16.90;13.00;;;;;;;9.12;79.17;100005.91;107073;1259;61682;-38
2023/04/17 00:40:20;;;;;;;18.10;13.20;;;;;;;9.13;79.08;100007.20;107048;1259;75151;-38
2023/04/17 00:42:52;;;;;;;21.40;14.00;;;;;;;9.13;79.26;100001.77;107106;1259;69013;-38
2023/04/17 00:45:21;;;;;;;17.50;13.50;;;;;;;9.09;79.22;100003.58;107069;1259;73858;-38
2023/04/17 00:47:49;;;;;;;19.90;13.30;;;;;;;9.04;79.36;99999.60;107111;1259;63179;-38
2023/04/17 00:50:17;;;;;;;16.90;12.80;;;;;;;9.04;79.50;99999.23;107045;1259;60319;-38
2023/04/17 00:52:47;;;;;;;13.00;9.80;;;;;;;9.07;79.38;99999.47;106963;1258;74951;-38
2023/04/17 00:55:16;;;;;;;19.30;14.20;;;;;;;9.06;79.37;99995.42;106958;1258;69280;-38
2023/04/17 00:57:45;;;;;;;19.40;13.80;;;;;;;8.97;79.48;99986.20;107003;1258;74080;-38
2023/04/17 01:00:16;;;;;;;16.10;13.30;;;;;;;8.95;79.56;99992.66;107003;1258;62882;-38
2023/04/17 01:02:45;;;;;;;19.80;12.60;;;;;;;8.93;79.65;99992.16;106969;1262;61518;-38
2023/04/17 01:05:15;;;;;;;18.10;13.10;;;;;;;8.92;79.78;99989.65;107050;1259;74162;-38
2023/04/17 01:07:43;;;;;;;21.60;14.10;;;;;;;8.90;79.97;99990.67;107077;1258;68421;-38
2023/04/17 01:10:12;;;;;;;17.50;13.40;;;;;;;8.86;80.07;99988.85;107034;1259;73568;-38
2023/04/17 01:12:45;;;;;;;17.70;12.90;;;;;;;8.82;80.13;99988.48;107078;1257;61902;-38
2023/04/17 01:15:14;;;;;;;17.40;12.90;;;;;;;8.83;80.26;99986.25;107082;1259;60316;-38
2023/04/17 01:17:42;;;;;;;19.20;13.50;;;;;;;8.80;80.32;99990.16;107070;1259;75079;-38
2023/04/17 01:20:12;;;;;;;27.80;14.90;;;;;;;8.73;80.55;99991.83;107034;1259;68169;-38
2023/04/17 01:22:41;;;;;;;16.90;12.70;;;;;;;8.68;80.83;99995.28;107037;1257;73921;-38
2023/04/17 01:25:10;;;;;;;18.10;12.70;;;;;;;8.67;80.88;99994.27;106970;1259;63212;-37
2023/04/17 01:27:40;;;;;;;23.60;13.40;;;;;;;8.69;80.97;99991.08;107076;1259;61354;-37
2023/04/17 01:30:10;;;;;;;18.80;13.30;;;;;;;8.68;81.10;99992.02;107133;1260;74979;-37
2023/04/17 01:32:49;;;;;;;17.40;12.20;;;;;;;8.65;81.16;99995.51;107054;1259;68892;-37
2023/04/17 01:35:17;;;;;;;20.30;12.60;;;;;;;8.64;81.26;99998.49;107099;1257;73896;-37
2023/04/17 01:37:47;;;;;;;19.90;13.30;;;;;;;8.65;81.22;100000.81;107139;1257;61276;-37
2023/04/17 01:40:17;;;;;;;16.40;12.80;;;;;;;8.63;81.49;99998.81;107067;1257;61516;-37
2023/04/17 01:42:45;;;;;;;17.70;12.30;;;;;;;8.64;81.55;99999.41;107069;1260;75192;-37
2023/04/17 01:45:16;;;;;;;17.90;11.90;;;;;;;8.64;81.44;99990.74;107059;1263;68942;-38
2023/04/17 01:47:46;;;;;;;18.00;12.40;;;;;;;8.75;81.24;99996.40;107050;1257;73987;-37
2023/04/17 01:50:14;;;;;;;19.10;13.40;;;;;;;8.76;81.11;99999.61;107059;1258;60366;-37
2023/04/17 01:52:44;;;;;;;16.30;12.80;;;;;;;8.67;81.15;99991.54;107102;1259;61572;-37
2023/04/17 01:55:12;;;;;;;16.90;12.70;;;;;;;8.66;81.26;100001.02;107070;1261;74762;-38
2023/04/17 01:57:41;;;;;;;19.80;12.60;;;;;;;8.64;81.21;100001.19;106994;1261;69142;-37
2023/04/17 02:00:10;;;;;;;21.40;13.00;;;;;;;8.62;81.25;99999.39;107032;1257;73907;-38
2023/04/17 02:02:43;;;;;;;17.30;13.30;;;;;;;8.55;81.51;100004.55;107061;1259;61369;-38
2023/04/17 02:05:11;;;;;;;19.60;12.40;;;;;;;8.46;82.05;99999.87;107029;1259;61567;-38
2023/04/17 02:07:41;;;;;;;18.10;13.00;;;;;;;8.45;82.13;100001.92;107006;1260;75152;-38
2023/04/17 02:10:10;;;;;;;18.70;12.10;;;;;;;8.47;82.15;99997.38;107006;1257;69132;-38
2023/04/17 02:12:39;;;;;;;12.70;9.90;;;;;;;8.47;82.35;99996.91;107010;1259;73066;-38
2023/04/17 02:15:08;;;;;;;19.00;13.00;;;;;;;8.46;82.33;99996.19;107056;1259;63237;-38
2023/04/17 02:17:37;;;;;;;16.80;12.40;;;;;;;8.46;82.32;99990.92;107074;1257;60919;-38
2023/04/17 02:20:06;;;;;;;16.10;12.50;;;;;;;8.51;82.26;99995.58;107112;1259;74336;-38
2023/04/17 02:22:35;;;;;;;17.60;13.10;;;;;;;8.49;82.31;99996.73;107061;1264;69092;-38
2023/04/17 02:25:04;;;;;;;20.20;13.00;;;;;;;8.45;82.51;99997.15;107044;1260;73861;-38
2023/04/17 02:27:33;;;;;;;18.80;12.30;;;;;;;8.44;82.56;99999.59;107066;1260;61867;-38
2023/04/17 02:30:02;;;;;;;21.70;13.20;;;;;;;8.48;82.44;100003.42;107115;1259;61566;-39
2023/04/17 02:32:32;;;;;;;21.00;13.40;;;;;;;8.48;82.41;100005.67;107079;1258;74745;-38
2023/04/17 02:35:01;;;;;;;19.80;12.40;;;;;;;8.46;82.59;100005.77;107130;1259;69223;-38
2023/04/17 02:37:30;;;;;;;17.90;12.10;;;;;;;8.49;82.58;100001.17;107113;1258;73653;-38
2023/04/17 02:39:58;;;;;;;17.90;11.90;;;;;;;8.52;82.42;100001.27;107055;1262;61512;-38
2023/04/17 02:42:27;;;;;;;20.60;13.80;;;;;;;8.51;82.47;100000.33;107051;1263;61578;-38
2023/04/17 02:44:55;;;;;;;18.50;13.20;;;;;;;8.53;82.62;100002.53;107043;1261;74856;-38
2023/04/17 02:47:24;;;;;;;16.80;12.10;;;;;;;8.54;82.44;100004.52;107090;1259;69159;-38
2023/04/17 02:49:54;;;;;;;20.90;12.70;;;;;;;8.59;82.31;100009.24;107003;1260;73676;-38
2023/04/17 02:52:22;;;;;;;;;;;;;;;8.60;82.23;100006.45;107013;1257;61561;-38
2023/04/17 02:54:51;;;;;;;21.70;13.20;;;;;;;8.53;82.28;100010.24;107088;1258;61322;-38
2023/04/17 02:57:19;;;;;;;18.80;12.30;;;;;;;8.46;82.56;100010.01;107026;1259;75088;-38
2023/04/17 02:59:49;;;;;;;21.70;13.40;;;;;;;8.51;82.42;100010.58;107028;1261;69131;-38
2023/04/17 03:02:20;;;;;;;22.00;13.70;;;;;;;8.52;82.45;100010.45;106988;1258;73749;-38
2023/04/17 03:04:50;;;;;;;16.20;12.90;;;;;;;8.48;82.50;100014.46;107029;1260;61273;-38
2023/04/17 03:07:19;;;;;;;19.20;13.00;;;;;;;8.44;82.75;100015.88;107035;1258;61228;-38
2023/04/17 03:09:48;;;;;;;19.30;13.10;;;;;;;8.46;82.73;100018.34;107103;1259;73882;-38
2023/04/17 03:12:17;;;;;;;21.20;14.40;;;;;;;8.45;82.81;100011.52;107058;1259;67988;-38
2023/04/17 03:14:45;;;;;;;17.30;13.40;;;;;;;8.42;82.96;100013.02;107065;1262;73826;-39
2023/04/17 03:17:14;;;;;;;19.20;12.60;;;;;;;8.39;83.04;100014.29;107071;1265;62921;-39
2023/04/17 03:19:42;;;;;;;18.00;12.50;;;;;;;8.42;83.06;100021.80;107094;1257;60642;-39
2023/04/17 03:22:11;;;;;;;17.90;13.40;;;;;;;8.42;83.17;100024.04;107032;1258;75092;-39
2023/04/17 03:24:40;;;;;;;19.70;13.60;;;;;;;8.41;83.36;100025.41;107064;1262;68334;-39
2023/04/17 03:27:10;;;;;;;18.70;13.60;;;;;;;8.42;83.31;100025.59;107076;1262;73589;-39
2023/04/17 03:29:41;;;;;;;19.20;12.90;;;;;;;8.46;83.26;100025.49;107057;1258;61902;-37
2023/04/17 03:32:10;;;;;;;19.70;13.30;;;;;;;8.47;83.20;100027.46;107086;1257;60437;-38
2023/04/17 03:34:39;;;;;;;20.70;14.40;;;;;;;8.39;83.28;100020.02;107089;1262;75040;-38
2023/04/17 03:37:07;;;;;;;15.60;12.80;;;;;;;8.45;83.31;100029.04;106995;1263;69108;-38
2023/04/17 03:39:36;;;;;;;19.30;13.40;;;;;;;8.48;83.31;100029.23;107016;1259;73731;-38
2023/04/17 03:42:05;;;;;;;19.70;14.10;;;;;;;8.51;83.24;100030.42;107122;1259;61733;-38
2023/04/17 03:44:33;;;;;;;17.60;13.60;;;;;;;8.50;83.38;100031.77;107132;1259;61563;-38
2023/04/17 03:47:02;;;;;;;20.40;13.20;;;;;;;8.49;83.38;100034.88;107117;1257;75004;-38
2023/04/17 03:49:30;;;;;;;19.40;13.30;;;;;;;8.52;83.18;100036.33;107105;1259;69165;-38
2023/04/17 03:52:02;;;;;;;17.00;14.00;;;;;;;8.52;83.24;100037.58;107171;1258;72684;-38
2023/04/17 03:54:34;;;;;;;18.60;14.10;;;;;;;8.51;83.42;100040.61;107029;1260;61422;-38
2023/04/17 03:57:04;;;;;;;16.30;12.30;;;;;;;8.53;83.49;100043.41;107107;1257;61187;-38
2023/04/17 03:59:33;;;;;;;17.10;13.10;;;;;;;8.59;83.22;100042.48;107061;1257;75016;-38
2023/04/17 04:02:01;;;;;;;20.30;13.80;;;;;;;8.61;83.16;100043.54;107053;1260;69214;-38
2023/04/17 04:04:33;;;;;;;22.20;13.70;;;;;;;8.62;83.15;100048.11;107011;1263;73742;-38
2023/04/17 04:07:07;;;;;;;19.00;12.70;;;;;;;8.64;83.01;100047.21;107050;1258;63233;-38
2023/04/17 04:09:35;;;;;;;18.80;12.90;;;;;;;8.67;82.93;100048.14;107152;1257;61010;-38
2023/04/17 04:12:04;;;;;;;18.70;12.70;;;;;;;8.65;82.91;100052.96;107090;1262;75160;-38
2023/04/17 04:14:38;;;;;;;18.60;12.30;;;;;;;8.66;82.97;100054.00;107039;1259;69019;-38
2023/04/17 04:17:09;;;;;;;16.40;12.60;;;;;;;8.73;82.79;100060.82;107024;1262;73880;-38
2023/04/17 04:19:38;;;;;;;17.10;13.20;;;;;;;8.77;82.72;100060.02;106984;1257;61094;-38
2023/04/17 04:22:07;;;;;;;19.70;10.90;;;;;;;8.75;82.68;100059.05;107098;1257;60285;-38
2023/04/17 04:24:41;;;;;;;20.80;12.40;;;;;;;8.76;82.81;100064.17;107102;1262;74851;-38
2023/04/17 04:27:12;;;;;;;17.10;12.50;;;;;;;8.80;82.69;100062.38;107052;1257;67509;-38
2023/04/17 04:29:47;;;;;;;15.80;12.20;;;;;;;8.81;82.61;100062.73;107037;1263;73772;-38
2023/04/17 04:32:19;;;;;;;17.20;11.70;;;;;;;8.77;82.50;100061.89;107050;1260;62864;-38
2023/04/17 04:34:48;;;;;;;16.90;10.90;;;;;;;8.80;82.58;100068.02;107017;1257;60372;-38
2023/04/17 04:37:20;;;;;;;16.00;11.50;;;;;;;8.86;82.57;100066.19;107082;1259;72351;-38
2023/04/17 04:39:52;;;;;;;21.00;12.70;;;;;;;8.88;82.38;100066.80;107090;1259;68842;-39
2023/04/17 04:42:22;;;;;;;14.10;10.70;;;;;;;8.89;82.05;100067.60;107006;1259;73741;-39
2023/04/17 04:45:03;;;;;;;20.70;11.60;;;;;;;8.93;81.88;100067.15;107045;1262;63181;-39
2023/04/17 04:47:32;;;;;;;14.90;10.90;;;;;;;8.96;81.60;100066.33;107133;1258;61466;-37
2023/04/17 04:50:01;;;;;;;17.60;11.60;;;;;;;8.97;81.51;100068.98;107124;1261;74158;-37
2023/04/17 04:52:30;;;;;;;14.10;10.30;;;;;;;8.97;81.52;100067.90;107063;1260;68813;-38
2023/04/17 04:55:00;;;;;;;17.90;11.10;;;;;;;9.00;81.32;100070.48;107009;1258;73667;-38
2023/04/17 04:57:30;;;;;;;15.10;10.50;;;;;;;9.03;81.24;100071.14;107089;1257;61553;-38
2023/04/17 05:00:00;;;;;;;14.50;10.90;;;;;;;9.05;81.24;100072.64;107046;1257;60468;-38
2023/04/17 05:02:36;;;;;;;16.60;10.60;;;;;;;9.03;80.90;100070.66;107020;1257;74890;-38
2023/04/17 05:05:08;;;;;;;13.80;9.90;;;;;;;9.05;80.64;100072.61;107108;1262;69120;-38
2023/04/17 05:07:37;;;;;;;14.30;10.70;;;;;;;9.07;80.50;100074.66;106859;1258;217486;-38
2023/04/17 05:10:45;;;;;;;15.60;9.90;;;;;;;9.09;80.30;100074.36;104275;1292;599639;-38
2023/04/17 05:13:14;;;;;;;17.10;10.10;;;;;;;9.10;79.94;100078.16;106656;1267;62955;-38
2023/04/17 05:15:43;;;;;;;13.90;9.70;;;;;;;9.13;80.01;100081.61;106652;1267;60384;-38
2023/04/17 05:18:12;;;;;;;14.70;10.40;;;;;;;9.15;79.98;100082.84;106688;1266;73082;-38
2023/04/17 05:20:41;;;;;;;12.20;9.10;;;;;;;9.15;79.98;100089.89;106717;1267;68107;-38
2023/04/17 05:23:09;;;;;;;12.90;8.90;;;;;;;9.22;79.93;100090.83;106718;1267;73825;-38
2023/04/17 05:25:38;;;;;;;15.20;9.30;;;;;;;9.30;79.55;100092.25;106707;1263;59399;-38
2023/04/17 05:28:06;;;;;;;16.00;9.70;;;;;;;9.32;79.35;100098.66;106914;1263;61271;-38
2023/04/17 05:30:35;;;;;;;16.90;9.20;;;;;;;9.32;79.41;100102.14;106884;1263;72501;-38
2023/04/17 05:33:11;;;;;;;15.10;9.00;;;;;;;9.34;79.49;100103.06;106850;1263;69195;-38
2023/04/17 05:35:52;;;;;;;13.90;8.60;;;;;;;9.44;79.13;100107.83;106865;1263;72790;-38
2023/04/17 05:38:24;;;;;;;16.80;9.50;;;;;;;9.46;78.87;100107.91;106879;1263;60443;-38
2023/04/17 05:40:52;;;;;;;12.40;9.30;;;;;;;9.47;78.74;100113.41;106917;1263;61327;-38
2023/04/17 05:43:21;;;;;;;14.60;8.40;;;;;;;9.44;78.58;100107.69;107410;1257;73935;-38
2023/04/17 05:45:52;;;;;;;17.20;8.50;;;;;;;9.44;78.57;100112.31;107347;1256;67599;-38
2023/04/17 05:48:20;;;;;;;15.60;8.80;;;;;;;9.43;78.44;100109.95;107426;1257;72580;-38
2023/04/17 05:50:49;;;;;;;12.80;9.00;;;;;;;9.41;78.47;100108.79;107312;1255;61543;-38
2023/04/17 05:53:18;;;;;;;15.80;8.80;;;;;;;9.38;78.44;100114.88;107312;1257;61416;-38
2023/04/17 05:55:53;;;;;;;17.40;8.30;;;;;;;9.32;78.13;100111.73;107334;1260;73913;-38
2023/04/17 05:58:21;;;;;;;14.10;8.30;;;;;;;9.32;78.09;100111.88;107367;1257;69107;-38
2023/04/17 06:00:55;;;;;;;17.70;9.10;;;;;;;9.29;78.03;100108.60;107325;1257;73565;-38
2023/04/17 06:03:26;;;;;;;12.00;8.80;;;;;;;9.25;78.38;100113.72;107270;1257;61288;-38
2023/04/17 06:06:04;;;;;;;15.10;9.20;;;;;;;9.21;78.44;100116.89;107322;1257;61536;-38
2023/04/17 06:08:33;;;;;;;12.40;8.10;;;;;;;9.16;78.39;100109.69;107398;1257;74216;-38
2023/04/17 06:11:01;;;;;;;17.00;8.80;;;;;;;9.24;78.41;100121.65;107242;1257;68902;-38
2023/04/17 06:13:30;;;;;;;14.50;8.70;;;;;;;9.23;77.94;100118.55;107293;1257;73601;-38
2023/04/17 06:15:58;;;;;;;11.50;8.10;;;;;;;9.22;78.00;100120.77;107346;1257;60716;-38
2023/04/17 06:18:27;;;;;;;16.90;8.60;;;;;;;9.23;77.89;100121.05;107293;1257;61237;-38
2023/04/17 06:20:55;;;;;;;17.20;8.70;;;;;;;9.28;77.84;100121.77;107281;1257;73178;-37
2023/04/17 06:23:25;;;;;;;22.00;8.80;;;;;;;9.23;77.66;100115.74;107293;1257;68076;-37
2023/04/17 06:25:53;;;;;;;16.40;8.00;;;;;;;9.25;77.44;100121.98;107343;1256;72653;-38
2023/04/17 06:28:21;;;;;;;15.40;7.70;;;;;;;9.21;77.46;100123.55;107345;1258;62752;-38
2023/04/17 06:30:51;;;;;;;14.40;7.70;;;;;;;9.23;77.37;100124.69;107304;1257;61365;-38
2023/04/17 06:33:20;;;;;;;14.00;8.10;;;;;;;9.25;77.43;100122.21;107329;1257;73972;-38
2023/04/17 06:35:48;;;;;;;15.20;8.40;;;;;;;9.28;77.26;100119.86;107261;1257;69352;-38
2023/04/17 06:38:24;;;;;;;14.20;8.10;;;;;;;9.30;76.75;100122.10;107242;1257;73527;-38
2023/04/17 06:40:52;;;;;;;19.80;7.50;;;;;;;9.32;76.78;100120.08;107231;1257;63049;-38
2023/04/17 06:43:21;;;;;;;8.90;7.20;;;;;;;9.40;77.01;100120.08;107263;1256;61462;-38
2023/04/17 06:45:49;;;;;;;14.40;7.70;;;;;;;9.46;76.93;100124.15;107347;1256;74148;-38
2023/04/17 06:48:18;;;;;;;12.50;8.40;;;;;;;9.48;76.75;100125.13;107351;1257;69012;-38
2023/04/17 06:50:47;;;;;;;15.40;8.10;;;;;;;9.50;76.87;100128.77;107322;1258;73689;-38
2023/04/17 06:53:15;;;;;;;12.90;7.50;;;;;;;9.52;76.36;100132.70;107308;1257;63163;-39
2023/04/17 06:55:44;;;;;;;15.30;7.80;;;;;;;9.59;75.94;100136.60;107320;1258;61293;-38
2023/04/17 06:58:12;;;;;;;15.70;7.90;;;;;;;9.62;74.84;100136.23;107330;1257;74303;-38
2023/04/17 07:00:41;;;;;;;16.40;7.80;;;;;;;9.59;74.19;100142.14;107264;1257;69395;-39
2023/04/17 07:03:10;;;;;;;13.40;7.60;;;;;;;9.55;73.84;100141.55;107298;1257;73732;-38
2023/04/17 07:05:38;;;;;;;10.60;6.60;;;;;;;9.53;73.70;100136.83;107305;1260;63437;-38
2023/04/17 07:08:07;;;;;;;11.10;6.40;;;;;;;9.56;72.62;100139.13;107308;1256;61233;-38
2023/04/17 07:10:36;;;;;;;15.20;7.20;;;;;;;9.59;72.83;100139.21;107320;1257;74266;-38
2023/04/17 07:13:04;;;;;;;13.10;7.60;;;;;;;9.60;72.78;100134.23;107332;1258;68957;-38
2023/04/17 07:15:33;;;;;;;12.40;6.20;;;;;;;9.61;71.91;100138.43;107343;1257;73855;-38
2023/04/17 07:18:01;;;;;;;13.70;6.20;;;;;;;9.60;71.27;100136.78;107296;1257;63167;-38
2023/04/17 07:20:30;;;;;;;12.30;6.50;;;;;;;9.65;70.79;100133.23;107409;1260;59498;-38
2023/04/17 07:22:58;;;;;;;10.50;6.40;;;;;;;9.67;70.20;100134.78;107299;1260;73899;-39
2023/04/17 07:25:27;;;;;;;13.80;6.60;;;;;;;9.66;69.71;100135.30;107265;1257;69052;-38
2023/04/17 07:27:56;;;;;;;11.20;6.50;;;;;;;9.64;69.32;100132.36;107320;1260;73971;-38
2023/04/17 07:30:24;;;;;;;10.70;6.70;;;;;;;9.62;67.97;100135.69;107363;1257;61557;-38
2023/04/17 07:32:53;;;;;;;12.30;5.90;;;;;;;9.61;67.96;100130.48;107380;1256;61517;-38
2023/04/17 07:35:22;;;;;;;12.00;6.10;;;;;;;9.65;66.92;100137.98;107348;1257;73866;-38
2023/04/17 07:37:50;;;;;;;11.90;6.10;;;;;;;9.71;66.56;100135.69;107304;1257;67884;-38
2023/04/17 07:40:19;;;;;;;12.20;6.00;;;;;;;9.75;66.36;100132.59;107336;1257;73648;-38
2023/04/17 07:42:47;;;;;;;10.10;6.60;;;;;;;9.80;66.30;100130.50;107289;1257;60072;-38
2023/04/17 07:45:16;;;;;;;13.70;6.30;;;;;;;9.87;66.41;100134.70;107299;1257;61525;-39
2023/04/17 07:47:45;;;;;;;9.80;5.20;;;;;;;9.97;65.57;100135.50;107304;1260;73633;-38
2023/04/17 07:50:14;;;;;;;11.10;5.50;;;;;;;10.08;63.45;100135.79;107375;1257;69187;-38
2023/04/17 07:52:42;;;;;;;11.50;5.50;;;;;;;10.16;63.70;100135.58;107347;1258;73718;-39
2023/04/17 07:55:11;;;;;;;9.90;5.50;;;;;;;10.25;63.36;100135.13;107377;1257;60000;-38
2023/04/17 07:57:41;;;;;;;12.90;4.90;;;;;;;10.35;61.45;100134.37;107264;1257;61991;-38
2023/04/17 08:00:15;;;;;;;10.00;4.40;;;;;;;10.43;60.49;100134.70;107315;1257;74234;-39
2023/04/17 08:02:43;;;;;;;6.60;4.20;;;;;;;10.48;57.79;100136.02;107381;1259;67619;-39
2023/04/17 08:05:12;;;;;;;7.30;4.20;;;;;;;10.50;57.38;100136.85;106540;1257;1003428;-38
2023/04/17 08:07:42;;;;;;;7.60;3.40;;;;;;;10.54;57.18;100138.15;107319;1257;61599;-39
2023/04/17 08:10:10;;;;;;;9.10;4.60;;;;;;;10.56;56.31;100135.20;107309;1258;61252;-39
2023/04/17 08:12:39;;;;;;;6.90;3.90;;;;;;;10.54;56.98;100128.56;106539;1260;1002883;-38
2023/04/17 08:15:08;;;;;;;8.20;4.20;;;;;;;10.54;56.28;100133.67;107303;1260;69042;-38
2023/04/17 08:17:37;;;;;;;6.40;4.00;;;;;;;10.56;55.50;100134.82;107323;1260;73910;-39
2023/04/17 08:20:10;;;;;;;10.50;3.50;;;;;;;10.59;54.76;100134.81;107310;1257;61605;-39
2023/04/17 08:22:39;;;;;;;7.80;4.00;;;;;;;10.61;54.90;100134.95;107347;1257;61512;-37
2023/04/17 08:25:09;;;;;;;7.30;3.80;;;;;;;10.61;53.95;100129.99;107397;1257;73871;-38
2023/04/17 08:27:41;;;;;;;6.60;2.40;;;;;;;10.60;52.94;100130.27;107329;1258;67970;-37
2023/04/17 08:30:11;;;;;;;8.10;3.70;;;;;;;10.59;52.44;100129.79;107339;1257;73672;-37
2023/04/17 08:32:45;;;;;;;9.40;4.30;;;;;;;10.61;51.72;100130.64;107339;1260;60586;-38
2023/04/17 08:35:14;;;;;;;4.90;3.30;;;;;;;10.70;53.02;100131.44;106567;1260;1002945;-38
2023/04/17 08:37:45;;;;;;;9.40;3.40;;;;;;;10.82;52.95;100124.99;107350;1257;72700;-37
2023/04/17 08:40:15;;;;;;;8.30;3.90;;;;;;;10.96;52.21;100126.10;107371;1260;69123;-37
2023/04/17 08:42:46;;;;;;;;;;;;;;;11.08;51.95;100127.30;107308;1260;74925;-38
2023/04/17 08:45:16;;;;;;;7.30;3.70;;;;;;;11.17;51.12;100120.96;105815;1256;1003104;-38
2023/04/17 08:47:46;;;;;;;6.60;3.70;;;;;;;11.22;49.69;100113.27;107377;1256;61546;-38
2023/04/17 08:50:18;;;;;;;6.70;3.50;;;;;;;11.28;50.63;100112.77;107303;1258;73908;-38
2023/04/17 08:52:47;;;;;;;8.10;3.40;;;;;;;11.41;50.63;100111.02;107358;1260;68792;-37
2023/04/17 08:55:21;;;;;;;8.60;3.60;;;;;;;11.53;49.02;100110.35;107336;1257;73687;-38
2023/04/17 08:58:02;;;;;;;5.20;3.60;;;;;;;11.63;48.00;100111.84;107317;1257;59791;-38
2023/04/17 09:00:49;;;;;;;6.20;3.30;;;;;;;11.72;47.83;100109.45;107297;1261;61491;-38
2023/04/17 09:03:18;;;;;;;6.60;3.80;;;;;;;11.83;46.75;100109.30;107281;1257;73614;-38
2023/04/17 09:05:47;;;;;;;5.60;3.70;;;;;;;11.95;47.92;100110.67;107171;1262;69177;-38
2023/04/17 09:08:21;;;;;;;8.40;3.90;;;;;;;12.08;48.09;100110.15;107205;1257;71779;-38
2023/04/17 09:10:50;;;;;;;9.70;3.90;;;;;;;12.22;48.50;100107.40;107183;1257;60520;-38
2023/04/17 09:13:23;;;;;;;8.00;3.80;;;;;;;12.41;46.08;100102.95;107281;1257;60075;-38
2023/04/17 09:16:09;;;;;;;6.20;3.60;;;;;;;12.59;45.28;100102.82;107220;1257;74260;-38
2023/04/17 09:18:39;;;;;;;7.90;3.80;;;;;;;12.57;44.62;100083.19;107274;1261;69120;-38
2023/04/17 09:21:07;;;;;;;9.70;3.60;;;;;;;12.82;44.89;100099.76;107268;1257;72402;-38
2023/04/17 09:23:54;;;;;;;6.00;3.80;;;;;;;12.94;44.01;100100.25;107325;1262;61577;-38
2023/04/17 09:26:26;;;;;;;8.80;3.40;;;;;;;12.99;44.37;100099.41;107290;1257;60836;-38
2023/04/17 09:29:10;;;;;;;7.00;4.20;;;;;;;12.99;44.83;100100.28;107264;1260;75011;-38
2023/04/17 09:31:41;;;;;;;6.30;3.70;;;;;;;13.06;44.65;100100.73;107306;1261;68088;-38
2023/04/17 09:34:11;;;;;;;7.30;4.00;;;;;;;13.08;44.08;100097.81;107238;1261;73484;-38
2023/04/17 09:36:40;;;;;;;8.00;4.10;;;;;;;13.09;44.25;100099.85;107335;1261;60390;-38
2023/04/17 09:39:17;;;;;;;11.10;4.00;;;;;;;13.09;44.35;100101.25;107323;1257;61511;-38
2023/04/17 09:41:46;;;;;;;6.40;3.90;;;;;;;13.06;44.85;100098.70;107308;1257;75012;-38
2023/04/17 09:44:24;;;;;;;9.00;4.00;;;;;;;13.11;45.89;100101.64;107281;1258;67539;-39
2023/04/17 09:46:53;;;;;;;7.90;3.70;;;;;;;13.26;45.14;100094.40;107270;1261;73647;-38
2023/04/17 09:49:29;;;;;;;7.10;4.00;;;;;;;13.38;44.30;100092.38;107221;1258;60558;-38
2023/04/17 09:51:57;;;;;;;6.80;3.60;;;;;;;13.45;45.35;100092.34;107244;1257;61531;-38
2023/04/17 09:54:30;;;;;;;5.80;3.50;;;;;;;13.47;44.77;100088.57;107267;1257;75072;-38
2023/04/17 09:56:58;;;;;;;6.10;3.70;;;;;;;13.44;43.52;100089.68;107201;1263;69130;-38
2023/04/17 09:59:27;;;;;;;7.80;3.60;;;;;;;13.38;43.75;100090.75;107177;1262;73929;-38
2023/04/17 10:01:55;;;;;;;9.00;3.60;;;;;;;13.35;44.32;100090.84;107175;1262;61572;-38
2023/04/17 10:04:24;;;;;;;6.80;3.20;;;;;;;13.35;44.76;100090.06;107220;1263;60868;-38
2023/04/17 10:06:55;;;;;;;8.00;3.70;;;;;;;13.50;45.33;100086.75;107306;1258;75038;-38
2023/04/17 10:09:23;;;;;;;8.20;3.80;;;;;;;13.77;45.31;100083.44;107264;1257;68199;-39
2023/04/17 10:11:52;;;;;;;9.40;4.00;;;;;;;14.15;44.61;100087.95;107283;1262;73930;-39
2023/04/17 10:14:29;;;;;;;5.20;3.70;;;;;;;14.53;44.80;100085.85;107248;1259;61641;-37
2023/04/17 10:16:57;;;;;;;11.00;4.00;;;;;;;14.89;42.60;100086.50;107302;1262;62097;-37
2023/04/17 10:19:35;;;;;;;7.10;3.80;;;;;;;15.12;41.81;100079.61;107238;1260;75080;-38
2023/04/17 10:22:19;;;;;;;5.90;3.70;;;;;;;15.30;41.99;100076.45;107607;1255;69074;-38
2023/04/17 10:24:50;;;;;;;5.00;2.90;;;;;;;15.47;40.81;100069.06;107578;1255;73613;-38
2023/04/17 10:27:25;;;;;;;4.80;3.30;;;;;;;15.59;40.94;100069.23;107586;1257;61573;-38
2023/04/17 10:30:01;;;;;;;5.30;3.00;;;;;;;15.81;39.16;100069.81;107637;1254;61342;-39
2023/04/17 10:32:30;;;;;;;6.70;2.90;;;;;;;15.87;37.70;100065.43;107611;1255;75122;-37
2023/04/17 10:35:00;;;;;;;6.90;3.30;;;;;;;15.88;37.47;100070.75;107571;1254;69095;-37
2023/04/17 10:37:50;;;;;;;6.70;2.80;;;;;;;15.88;37.23;100063.87;107640;1254;71721;-38
2023/04/17 10:40:28;;;;;;;6.30;2.50;;;;;;;15.94;37.36;100066.11;107597;1254;60696;-38
2023/04/17 10:43:07;;;;;;;4.20;2.40;;;;;;;16.02;38.57;100066.34;107624;1257;61244;-38
2023/04/17 10:46:02;;;;;;;5.00;2.90;;;;;;;16.17;36.88;100061.75;107514;1258;75020;-38
2023/04/17 10:48:37;;;;;;;8.10;2.80;;;;;;;16.22;35.92;100059.21;107620;1257;68818;-38
2023/04/17 10:51:28;;;;;;;3.70;2.60;;;;;;;16.15;36.47;100059.64;107598;1254;72939;-38
2023/04/17 10:53:56;;;;;;;;;;;;;;;16.14;36.82;100060.48;107581;1256;61615;-38
2023/04/17 10:56:26;;;;;;;5.10;2.80;;;;;;;16.21;37.26;100059.83;107630;1254;61421;-38
2023/04/17 10:58:59;;;;;;;6.70;3.90;;;;;;;16.28;38.70;100063.23;107622;1254;72988;-38
2023/04/17 11:01:31;;;;;;;7.70;3.40;;;;;;;16.35;39.28;100069.80;107631;1255;69102;-38
2023/04/17 11:03:59;;;;;;;11.10;3.80;;;;;;;16.29;39.77;100068.58;107620;1254;72800;-38
2023/04/17 11:06:30;;;;;;;7.10;4.10;;;;;;;16.15;39.30;100070.12;107604;1257;61584;-38
2023/04/17 11:08:59;;;;;;;14.80;3.90;;;;;;;15.98;39.95;100070.68;107644;1253;61170;-38
2023/04/17 11:11:27;;;;;;;9.30;3.80;;;;;;;15.81;40.30;100074.04;107591;1254;75026;-38
2023/04/17 11:14:14;;;;;;;9.60;4.00;;;;;;;15.65;40.20;100072.88;107613;1255;68156;-38
2023/04/17 11:16:44;;;;;;;12.00;4.00;;;;;;;15.50;40.47;100084.02;107521;1254;73879;-38
2023/04/17 11:19:20;;;;;;;6.70;4.20;;;;;;;15.39;41.23;100080.93;107584;1253;61623;-38
2023/04/17 11:21:52;;;;;;;5.60;3.70;;;;;;;15.38;41.18;100075.92;107551;1254;61498;-38
2023/04/17 11:24:25;;;;;;;5.60;3.60;;;;;;;15.43;41.13;100077.46;107652;1254;74997;-38
2023/04/17 11:26:55;;;;;;;6.90;3.40;;;;;;;15.51;40.51;100075.55;107588;1254;66754;-38
2023/04/17 11:29:24;;;;;;;;;;;;;;;15.57;41.05;100064.21;107617;1254;71607;-38